Time;durP1;ratioP1;P1;durP2;ratioP2;P2;SDS_P1;SDS_P2;PMS_P1;PMS_P2;Temp;Humidity;BMP_temperature;BMP_pressure;BME280_temperature;BME280_humidity;BME280_pressure;Samples;Min_cycle;Max_cycle;Signal;HPM_P1;HPM_P2
2022/03/29 00:00:17;;;;;;;19.20;9.65;;;;;;;11.04;36.07;99184.61;1734406;82;21010;-69
2022/03/29 00:02:45;;;;;;;24.12;11.55;;;;;;;11.10;35.59;99176.35;1734407;82;21123;-69
2022/03/29 00:05:12;;;;;;;22.55;12.20;;;;;;;11.06;35.58;99182.71;1733995;82;21084;-69
2022/03/29 00:07:38;;;;;;;23.80;11.22;;;;;;;11.06;35.85;99177.44;1734051;82;21051;-67
2022/03/29 00:10:07;;;;;;;21.82;11.00;;;;;;;11.09;35.46;99171.19;1733899;82;22105;-68
2022/03/29 00:12:36;;;;;;;23.02;11.45;;;;;;;11.08;35.54;99175.58;1734415;82;21062;-69
2022/03/29 00:15:05;;;;;;;24.20;11.05;;;;;;;11.11;35.61;99158.30;1734298;82;21189;-69
2022/03/29 00:17:33;;;;;;;22.52;11.35;;;;;;;11.12;35.26;99159.99;1734259;82;21133;-69
2022/03/29 00:20:00;;;;;;;26.97;12.35;;;;;;;11.06;35.52;99164.27;1746317;82;21105;-69
2022/03/29 00:22:26;;;;;;;23.83;11.48;;;;;;;11.05;35.47;99159.95;1748218;82;21052;-69
2022/03/29 00:24:53;;;;;;;25.65;12.15;;;;;;;11.04;35.55;99162.66;1748069;82;21022;-68
2022/03/29 00:27:19;;;;;;;21.40;12.20;;;;;;;10.97;35.40;99150.28;1748131;82;21124;-69
2022/03/29 00:29:46;;;;;;;24.35;13.18;;;;;;;10.91;35.30;99150.63;1747968;82;21041;-70
2022/03/29 00:32:13;;;;;;;23.75;12.33;;;;;;;10.87;35.38;99153.04;1748105;82;21049;-68
2022/03/29 00:34:42;;;;;;;26.77;13.68;;;;;;;10.81;35.46;99149.41;1748075;82;21007;-69
2022/03/29 00:37:09;;;;;;;23.85;11.83;;;;;;;10.78;35.45;99145.63;1748296;82;21117;-68
2022/03/29 00:39:37;;;;;;;21.40;12.58;;;;;;;10.73;35.57;99148.52;1747942;82;21041;-68
2022/03/29 00:42:04;;;;;;;22.90;12.37;;;;;;;10.75;35.49;99143.17;1747807;82;21073;-68
2022/03/29 00:44:34;;;;;;;22.50;11.00;;;;;;;10.81;35.71;99144.14;1748189;82;21034;-69
2022/03/29 00:47:01;;;;;;;26.68;12.65;;;;;;;10.88;35.34;99151.66;1748175;82;21022;-68
2022/03/29 00:49:28;;;;;;;29.00;12.55;;;;;;;10.91;35.30;99149.31;1743040;82;21132;-68
2022/03/29 00:51:58;;;;;;;28.42;14.03;;;;;;;10.89;35.19;99145.91;1739327;82;21284;-69
2022/03/29 00:54:25;;;;;;;20.68;12.55;;;;;;;10.85;35.31;99143.89;1748413;82;21030;-70
2022/03/29 00:56:52;;;;;;;27.45;12.82;;;;;;;10.85;35.42;99147.84;1748137;82;21593;-69
2022/03/29 00:59:18;;;;;;;23.90;11.35;;;;;;;10.86;34.97;99140.81;1748032;82;21069;-69
2022/03/29 01:01:46;;;;;;;23.10;11.57;;;;;;;10.88;34.95;99136.29;1747732;82;21556;-71
2022/03/29 01:04:14;;;;;;;23.73;11.40;;;;;;;10.87;34.71;99135.45;1747989;82;21077;-69
2022/03/29 01:06:43;;;;;;;23.12;11.73;;;;;;;10.85;34.88;99137.31;1748027;82;21049;-69
2022/03/29 01:09:11;;;;;;;24.70;11.03;;;;;;;10.83;34.85;99136.54;1748375;82;22177;-68
2022/03/29 01:11:39;;;;;;;21.82;11.00;;;;;;;10.82;34.69;99127.42;1748086;82;21109;-70
2022/03/29 01:14:06;;;;;;;23.80;11.30;;;;;;;10.83;34.80;99126.48;1748141;81;22093;-69
2022/03/29 01:19:21;;;;;;;24.60;10.43;;;;;;;10.84;34.45;99124.24;1741349;81;21054;-69
2022/03/29 01:22:03;;;;;;;23.47;11.00;;;;;;;10.74;34.34;99125.66;1734330;82;21058;-69
2022/03/29 01:24:29;;;;;;;21.97;9.50;;;;;;;10.68;34.76;99125.05;1713125;82;21026;-68
2022/03/29 01:26:59;;;;;;;21.60;10.60;;;;;;;10.68;34.34;99116.31;1734251;82;21074;-70
2022/03/29 01:29:27;;;;;;;19.37;10.45;;;;;;;10.67;34.16;99111.52;1734238;82;21099;-70
2022/03/29 01:31:54;;;;;;;19.07;9.75;;;;;;;10.60;33.81;99115.39;1734004;82;21058;-69
2022/03/29 01:34:21;;;;;;;21.73;10.10;;;;;;;10.51;34.44;99104.03;1734085;82;21102;-69
2022/03/29 01:36:49;;;;;;;19.10;9.78;;;;;;;10.53;34.21;99111.38;1734348;82;21554;-69
2022/03/29 01:39:15;;;;;;;19.12;10.15;;;;;;;10.56;33.74;99107.30;1733886;82;21565;-70
2022/03/29 01:41:42;;;;;;;21.97;10.43;;;;;;;10.57;34.27;99111.61;1733836;82;21134;-69
2022/03/29 01:44:10;;;;;;;22.30;10.32;;;;;;;10.66;34.18;99108.96;1733934;82;21070;-70
2022/03/29 01:46:37;;;;;;;23.02;10.88;;;;;;;10.74;33.59;99104.59;1734062;82;21058;-70
2022/03/29 01:49:05;;;;;;;22.05;10.70;;;;;;;10.72;33.27;99104.69;1733999;82;21061;-68
2022/03/29 01:51:33;;;;;;;19.75;10.13;;;;;;;10.69;34.23;99110.10;1705124;83;21011;-69
2022/03/29 01:54:04;;;;;;;18.90;10.70;;;;;;;10.73;34.28;99105.53;1704472;84;21240;-68
2022/03/29 01:56:32;;;;;;;;;;;;;;;10.81;33.89;99093.66;1707456;84;21070;-69
2022/03/29 01:59:01;;;;;;;19.60;10.03;;;;;;;10.81;33.77;99096.30;1704405;83;20224;-68
2022/03/29 02:01:28;;;;;;;18.07;9.75;;;;;;;10.87;34.08;99105.62;1704297;84;21069;-69
2022/03/29 02:03:55;;;;;;;17.40;9.15;;;;;;;10.89;33.79;99097.18;1704472;83;21296;-69
2022/03/29 02:06:22;;;;;;;19.75;9.93;;;;;;;10.86;33.59;99098.67;1704327;84;21215;-69
2022/03/29 02:08:50;;;;;;;19.82;10.70;;;;;;;10.75;33.24;99093.14;1704356;84;21128;-70
2022/03/29 02:11:17;;;;;;;20.02;10.63;;;;;;;10.65;33.66;99087.05;1704433;83;21034;-68
2022/03/29 02:13:43;;;;;;;20.08;10.10;;;;;;;10.64;34.12;99094.55;1704543;84;21093;-69
2022/03/29 02:16:10;;;;;;;22.90;10.13;;;;;;;10.63;34.27;99092.86;1704621;83;21026;-69
2022/03/29 02:18:37;;;;;;;21.85;11.33;;;;;;;10.63;34.11;99079.70;1704708;83;21146;-70
2022/03/29 02:21:04;;;;;;;19.02;10.58;;;;;;;10.61;33.77;99086.83;1712403;83;21077;-68
2022/03/29 02:23:31;;;;;;;19.85;9.95;;;;;;;10.62;34.04;99091.15;1712574;83;21010;-68
2022/03/29 02:25:57;;;;;;;19.87;9.93;;;;;;;10.65;33.62;99083.11;1712619;83;21053;-70
2022/03/29 02:28:24;;;;;;;20.62;10.78;;;;;;;10.57;33.45;99080.02;1712647;83;21085;-69
2022/03/29 02:30:50;;;;;;;20.50;9.68;;;;;;;10.54;34.03;99076.72;1712545;83;21216;-69
2022/03/29 02:33:17;;;;;;;23.05;10.48;;;;;;;10.57;33.92;99078.70;1712614;83;21049;-69
2022/03/29 02:35:44;;;;;;;19.85;10.38;;;;;;;10.58;33.70;99081.73;1712611;83;21010;-69
2022/03/29 02:38:13;;;;;;;19.42;10.20;;;;;;;10.54;33.61;99067.03;1712701;83;21049;-69
2022/03/29 02:40:40;;;;;;;23.00;10.85;;;;;;;10.45;33.84;99074.11;1712633;83;21109;-69
2022/03/29 02:43:07;;;;;;;24.60;11.40;;;;;;;10.41;34.19;99073.88;1712755;83;21244;-69
2022/03/29 02:45:34;;;;;;;19.90;9.73;;;;;;;10.41;33.71;99081.77;1712551;83;21077;-68
2022/03/29 02:48:00;;;;;;;20.72;10.50;;;;;;;10.33;33.88;99074.73;1712652;83;20987;-69
2022/03/29 02:50:27;;;;;;;22.05;10.40;;;;;;;10.28;34.09;99071.91;1712657;83;21085;-70
2022/03/29 02:52:57;;;;;;;21.68;11.95;;;;;;;10.27;34.30;99080.68;1712589;83;21042;-68
2022/03/29 02:55:30;;;;;;;22.77;11.57;;;;;;;10.27;34.30;99066.20;1713054;83;21826;-68
2022/03/29 02:57:57;;;;;;;20.30;11.63;;;;;;;10.22;33.82;99070.87;1712736;83;21091;-69
2022/03/29 03:00:24;;;;;;;25.23;11.78;;;;;;;10.08;34.15;99066.33;1712519;83;21105;-68
2022/03/29 03:02:54;;;;;;;22.77;11.18;;;;;;;9.91;34.31;99076.01;1712472;83;21105;-68
2022/03/29 03:05:20;;;;;;;20.65;11.08;;;;;;;9.86;34.59;99070.52;1713013;83;21574;-70
2022/03/29 03:07:48;;;;;;;21.85;10.90;;;;;;;9.88;34.51;99075.70;1712691;83;21174;-69
2022/03/29 03:10:15;;;;;;;25.85;11.63;;;;;;;9.89;34.86;99081.34;1712646;83;21065;-68
2022/03/29 03:12:45;;;;;;;24.98;12.28;;;;;;;9.94;34.87;99074.53;1712812;83;21633;-69
2022/03/29 03:15:16;;;;;;;20.40;10.75;;;;;;;9.93;34.75;99072.84;1712708;83;21612;-69
2022/03/29 03:17:42;;;;;;;27.13;12.67;;;;;;;9.95;34.82;99070.98;1713151;83;21585;-69
2022/03/29 03:20:11;;;;;;;23.05;11.38;;;;;;;9.99;35.06;99067.28;1708785;83;21578;-69
2022/03/29 03:22:39;;;;;;;22.32;12.43;;;;;;;10.04;34.59;99071.83;1704827;84;21662;-69
2022/03/29 03:25:07;;;;;;;23.83;12.70;;;;;;;10.03;34.59;99071.42;1705181;84;21435;-68
2022/03/29 03:27:38;;;;;;;25.48;12.68;;;;;;;10.04;34.79;99067.88;1705178;84;21685;-69
2022/03/29 03:30:06;;;;;;;;;;;;;;;10.03;34.59;99071.42;1707306;84;21053;-69
2022/03/29 03:32:34;;;;;;;25.75;12.68;;;;;;;9.95;34.78;99068.36;1704540;83;20200;-69
2022/03/29 03:35:00;;;;;;;20.85;11.73;;;;;;;9.98;35.27;99065.56;1704650;84;21058;-70
2022/03/29 03:37:27;;;;;;;19.48;11.50;;;;;;;10.07;34.84;99058.50;1704557;84;21037;-68
2022/03/29 03:39:54;;;;;;;28.87;12.33;;;;;;;10.09;34.66;99052.70;1704597;84;21065;-70
2022/03/29 03:42:20;;;;;;;28.45;13.20;;;;;;;10.10;34.74;99057.05;1704783;83;21613;-70
2022/03/29 03:44:48;;;;;;;24.52;12.70;;;;;;;10.04;35.21;99054.73;1704846;84;21267;-69
2022/03/29 03:47:16;;;;;;;32.95;13.98;;;;;;;10.07;35.69;99065.08;1706134;82;21065;-69
2022/03/29 03:49:44;;;;;;;21.50;11.73;;;;;;;10.18;35.46;99056.64;1725899;82;21049;-69
2022/03/29 03:52:11;;;;;;;23.73;12.80;;;;;;;10.21;35.46;99056.00;1704900;84;22081;-70
2022/03/29 03:54:38;;;;;;;24.80;13.13;;;;;;;10.23;34.63;99058.08;1704902;84;21641;-70
2022/03/29 03:57:07;;;;;;;23.95;13.03;;;;;;;10.23;35.59;99063.34;1705173;83;21191;-70
2022/03/29 03:59:34;;;;;;;23.95;13.25;;;;;;;10.24;35.36;99057.64;1704697;84;21030;-69
2022/03/29 04:02:01;;;;;;;23.70;14.23;;;;;;;10.27;35.46;99053.05;1704804;84;21030;-70
2022/03/29 04:04:27;;;;;;;25.48;12.70;;;;;;;10.28;35.35;99052.17;1704822;84;21058;-69
2022/03/29 04:06:54;;;;;;;27.85;14.73;;;;;;;10.28;35.38;99049.54;1704863;83;21109;-71
2022/03/29 04:09:20;;;;;;;29.55;15.15;;;;;;;10.27;35.50;99049.58;1704747;84;21222;-69
2022/03/29 04:11:48;;;;;;;26.62;13.60;;;;;;;10.29;35.12;99052.54;1704985;83;21113;-69
2022/03/29 04:14:16;;;;;;;23.25;13.48;;;;;;;10.28;35.30;99048.22;1704966;83;21517;-68
2022/03/29 04:16:44;;;;;;;25.23;12.47;;;;;;;10.49;35.24;99045.38;1704816;84;21049;-70
2022/03/29 04:19:11;;;;;;;30.37;15.70;;;;;;;10.90;35.12;99038.28;1704971;84;21033;-69
2022/03/29 04:21:37;;;;;;;25.00;13.60;;;;;;;11.30;34.21;99034.73;1705039;83;21244;-70
2022/03/29 04:24:05;;;;;;;27.13;14.18;;;;;;;11.34;33.75;99038.86;1704951;84;21065;-69
2022/03/29 04:26:32;;;;;;;27.45;14.95;;;;;;;11.18;34.00;99043.31;1705044;84;21132;-69
2022/03/29 04:28:59;;;;;;;24.75;13.70;;;;;;;11.04;34.22;99044.97;1705064;83;21590;-70
2022/03/29 04:31:27;;;;;;;29.85;14.95;;;;;;;11.19;34.49;99050.30;1704992;84;21003;-69
2022/03/29 04:33:53;;;;;;;26.93;14.40;;;;;;;11.69;34.09;99043.91;1704991;84;22626;-70
2022/03/29 04:36:20;;;;;;;28.75;14.43;;;;;;;12.27;33.34;99043.06;1704809;84;21054;-69
2022/03/29 04:38:48;;;;;;;26.93;15.43;;;;;;;12.87;32.01;99047.73;1704731;84;21086;-68
2022/03/29 04:41:14;;;;;;;28.32;14.95;;;;;;;13.46;31.27;99045.68;1704747;84;21018;-69
2022/03/29 04:43:41;;;;;;;27.75;15.15;;;;;;;13.85;30.60;99038.67;1704908;83;21030;-69
2022/03/29 04:46:09;;;;;;;32.38;14.98;;;;;;;14.07;29.91;99051.27;1704843;84;21086;-69
2022/03/29 04:48:36;;;;;;;26.57;14.63;;;;;;;14.26;29.51;99048.19;1704728;83;21070;-70
2022/03/29 04:51:03;;;;;;;26.60;14.65;;;;;;;14.55;29.47;99046.19;1704679;84;21030;-69
2022/03/29 04:53:29;;;;;;;30.70;15.13;;;;;;;14.93;28.87;99051.03;1704978;84;21022;-69
2022/03/29 04:55:56;;;;;;;28.40;16.00;;;;;;;15.16;28.54;99055.98;1704981;84;21640;-69
2022/03/29 04:58:25;;;;;;;27.13;14.60;;;;;;;15.48;28.13;99050.96;1704870;84;22080;-70
2022/03/29 05:00:52;;;;;;;23.45;14.00;;;;;;;15.66;27.72;99062.02;1714933;82;21038;-69
2022/03/29 05:03:19;;;;;;;27.27;13.70;;;;;;;15.62;28.03;99060.55;1734275;82;21031;-69
2022/03/29 05:05:46;;;;;;;24.90;15.23;;;;;;;15.81;27.60;99066.21;1734022;82;21042;-69
2022/03/29 05:08:13;;;;;;;27.07;13.95;;;;;;;15.72;27.99;99065.58;1734205;82;21062;-68
2022/03/29 05:10:41;;;;;;;26.50;16.05;;;;;;;15.54;28.22;99062.45;1734208;82;21682;-69
2022/03/29 05:13:09;;;;;;;25.20;14.65;;;;;;;15.69;28.17;99066.62;1734254;82;21026;-69
2022/03/29 05:15:37;;;;;;;24.00;13.30;;;;;;;16.10;27.83;99072.42;1734138;82;22047;-69
2022/03/29 05:18:05;;;;;;;23.70;12.78;;;;;;;16.28;27.38;99066.19;1734029;82;21570;-68
2022/03/29 05:20:32;;;;;;;29.15;14.70;;;;;;;16.14;27.62;99061.45;1734314;81;21109;-71
2022/03/29 05:23:01;;;;;;;23.42;13.90;;;;;;;16.04;27.70;99070.26;1734208;82;21312;-69
2022/03/29 05:25:28;;;;;;;22.35;14.13;;;;;;;15.94;28.14;99064.78;1734182;82;21030;-70
2022/03/29 05:27:57;;;;;;;25.52;13.20;;;;;;;16.03;27.90;99062.75;1734138;82;20999;-69
2022/03/29 05:30:24;;;;;;;23.92;13.70;;;;;;;15.98;28.03;99071.56;1734240;82;21053;-68
2022/03/29 05:32:51;;;;;;;25.40;13.32;;;;;;;15.76;28.26;99067.50;1734142;82;21117;-68
2022/03/29 05:35:18;;;;;;;23.12;14.07;;;;;;;15.56;28.63;99068.50;1734267;82;21297;-69
2022/03/29 05:37:46;;;;;;;21.57;13.22;;;;;;;15.84;28.60;99067.30;1733909;82;21030;-70
2022/03/29 05:40:15;;;;;;;23.80;14.58;;;;;;;16.04;27.98;99071.09;1734349;82;21483;-68
2022/03/29 05:42:44;;;;;;;28.20;15.25;;;;;;;16.03;28.03;99067.22;1734089;82;21077;-68
2022/03/29 05:45:12;;;;;;;25.40;15.55;;;;;;;16.00;28.28;99063.48;1734386;82;21089;-70
2022/03/29 05:50:26;;;;;;;26.85;14.45;;;;;;;15.91;28.34;99075.64;1717682;82;21069;-69
2022/03/29 05:52:52;;;;;;;28.15;14.70;;;;;;;15.80;28.70;99071.63;1704844;83;20994;-70
2022/03/29 05:55:20;;;;;;;30.60;15.08;;;;;;;15.72;28.81;99077.03;1705166;84;21125;-69
2022/03/29 05:57:49;;;;;;;30.62;15.38;;;;;;;15.86;28.80;99075.16;1704755;84;21113;-70
2022/03/29 06:00:21;;;;;;;31.27;15.98;;;;;;;16.25;28.45;99073.08;1708266;82;21041;-69
2022/03/29 06:02:50;;;;;;;30.40;15.58;;;;;;;16.80;27.85;99068.77;1733972;82;21050;-69
2022/03/29 06:05:17;;;;;;;27.40;14.85;;;;;;;17.30;27.02;99067.84;1734118;82;21018;-69
2022/03/29 06:07:44;;;;;;;27.55;15.75;;;;;;;17.44;26.82;99069.83;1733910;82;21062;-69
2022/03/29 06:10:12;;;;;;;26.62;15.63;;;;;;;17.64;26.60;99068.19;1734136;82;21562;-70
2022/03/29 06:12:47;;;;;;;27.00;15.58;;;;;;;18.07;26.20;99075.27;1734085;82;21081;-69
2022/03/29 06:15:15;;;;;;;27.55;17.37;;;;;;;18.56;25.55;99071.88;1734065;82;21050;-69
2022/03/29 06:17:43;;;;;;;28.42;16.37;;;;;;;18.94;25.53;99063.72;1734003;82;20983;-69
2022/03/29 06:20:12;;;;;;;27.30;14.83;;;;;;;19.31;24.71;99072.44;1735053;82;21054;-70
2022/03/29 06:22:43;;;;;;;26.45;16.17;;;;;;;19.49;24.44;99060.09;1748056;82;21030;-69
2022/03/29 06:25:11;;;;;;;32.38;16.23;;;;;;;19.49;24.43;99060.09;1748098;82;22097;-69
2022/03/29 06:27:38;;;;;;;23.55;14.63;;;;;;;19.42;24.63;99064.30;1747965;82;21580;-69
2022/03/29 06:30:07;;;;;;;28.90;16.55;;;;;;;19.22;24.66;99069.26;1748087;82;21490;-70
2022/03/29 06:32:36;;;;;;;27.52;16.32;;;;;;;18.86;25.01;99067.55;1747957;82;21093;-69
2022/03/29 06:35:05;;;;;;;31.87;16.67;;;;;;;18.38;25.66;99070.81;1746706;82;21006;-70
2022/03/29 06:37:32;;;;;;;27.93;16.62;;;;;;;18.00;26.04;99070.45;1747826;82;21132;-69
2022/03/29 06:39:59;;;;;;;28.92;16.95;;;;;;;17.73;26.43;99060.27;1747845;82;20994;-69
2022/03/29 06:42:26;;;;;;;31.45;15.93;;;;;;;17.61;26.73;99069.30;1747957;82;21549;-68
2022/03/29 06:44:53;;;;;;;27.87;16.90;;;;;;;17.53;26.89;99061.95;1748211;82;21442;-71
2022/03/29 06:47:21;;;;;;;26.95;16.77;;;;;;;17.56;27.13;99064.84;1748160;82;21104;-69
2022/03/29 06:49:47;;;;;;;27.22;17.37;;;;;;;18.01;26.67;99065.97;1748149;82;21232;-69
2022/03/29 06:52:19;;;;;;;32.83;17.32;;;;;;;18.38;26.31;99057.48;1720700;82;21576;-69
2022/03/29 06:54:47;;;;;;;31.77;17.37;;;;;;;18.77;25.85;99055.02;1748278;82;21057;-69
2022/03/29 06:57:17;;;;;;;29.80;17.32;;;;;;;19.27;25.36;99040.32;1720724;82;21053;-68
2022/03/29 06:59:44;;;;;;;34.00;17.30;;;;;;;19.63;24.86;99048.14;1748112;82;21493;-72
2022/03/29 07:02:13;;;;;;;34.15;18.90;;;;;;;19.88;24.61;99049.93;1747971;82;21147;-70
2022/03/29 07:04:40;;;;;;;34.45;17.40;;;;;;;20.00;24.54;99051.95;1720565;82;21089;-70
2022/03/29 07:07:08;;;;;;;28.38;18.42;;;;;;;20.18;24.34;99044.04;1748105;82;21069;-70
2022/03/29 07:12:21;;;;;;;27.62;16.62;;;;;;;20.61;24.01;99047.48;1747968;82;21132;-68
2022/03/29 07:14:50;;;;;;;28.23;17.35;;;;;;;20.70;23.90;99047.94;1720670;82;21128;-70
2022/03/29 07:17:18;;;;;;;31.07;18.10;;;;;;;20.79;23.95;99037.34;1748379;82;21092;-71
2022/03/29 07:19:50;;;;;;;29.82;17.27;;;;;;;20.93;23.86;99035.50;1721695;82;21057;-70
2022/03/29 07:22:23;;;;;;;33.60;19.10;;;;;;;20.99;23.81;99038.93;1736849;81;21085;-69
2022/03/29 07:24:53;;;;;;;27.00;17.92;;;;;;;21.24;23.69;99034.69;1714139;82;21141;-69
2022/03/29 07:27:20;;;;;;;34.00;18.27;;;;;;;21.38;23.27;99034.66;1734242;82;21145;-70
2022/03/29 07:29:52;;;;;;;29.92;18.45;;;;;;;21.71;23.02;99036.31;1733875;82;21014;-70
2022/03/29 07:32:22;;;;;;;27.25;16.23;;;;;;;21.67;22.93;99034.94;1713875;82;21106;-69
2022/03/29 07:34:49;;;;;;;29.60;17.20;;;;;;;21.67;22.99;99033.59;1734165;82;21069;-70
2022/03/29 07:37:16;;;;;;;32.78;17.00;;;;;;;21.94;22.90;99032.14;1734148;82;21057;-68
2022/03/29 07:39:46;;;;;;;32.85;17.00;;;;;;;22.39;22.51;99024.42;1734051;82;21257;-70
2022/03/29 07:42:14;;;;;;;;;;;;;;;22.67;22.14;99030.09;1736724;82;21073;-69
2022/03/29 07:44:40;;;;;;;31.57;17.87;;;;;;;22.61;22.12;99028.88;1713159;82;20194;-69
2022/03/29 07:47:08;;;;;;;29.35;17.67;;;;;;;22.75;22.08;99022.06;1734171;82;21054;-69
2022/03/29 07:49:36;;;;;;;31.75;16.80;;;;;;;22.76;22.01;99024.59;1727820;82;21030;-69
2022/03/29 07:52:05;;;;;;;28.73;16.75;;;;;;;22.63;22.20;99028.22;1684859;84;21367;-69
2022/03/29 07:54:32;;;;;;;26.80;15.83;;;;;;;22.59;22.22;99025.52;1704905;83;21014;-69
2022/03/29 07:56:59;;;;;;;29.80;17.55;;;;;;;22.20;22.63;99013.88;1704589;84;21050;-69
2022/03/29 07:59:26;;;;;;;29.25;16.32;;;;;;;22.24;22.81;98997.84;1684194;84;21141;-68
2022/03/29 08:01:54;;;;;;;31.37;16.07;;;;;;;22.39;22.63;99002.97;1704497;84;21006;-70
2022/03/29 08:04:21;;;;;;;31.33;17.20;;;;;;;22.41;22.75;99009.02;1727682;82;21101;-69
2022/03/29 08:06:50;;;;;;;33.02;17.00;;;;;;;22.31;22.69;98996.20;1733599;82;21074;-70
2022/03/29 08:09:16;;;;;;;25.40;15.63;;;;;;;22.33;22.93;98996.89;1734081;82;21029;-69
2022/03/29 08:11:43;;;;;;;27.10;16.17;;;;;;;22.34;22.70;99001.27;1733961;82;21090;-70
2022/03/29 08:14:12;;;;;;;28.27;14.70;;;;;;;22.37;22.66;98996.92;1713617;82;21062;-69
2022/03/29 08:16:40;;;;;;;25.10;14.23;;;;;;;22.60;22.51;98989.65;1734189;82;21260;-70
2022/03/29 08:19:07;;;;;;;25.57;14.35;;;;;;;22.89;22.24;98983.02;1734129;82;21537;-69
2022/03/29 08:21:49;;;;;;;22.85;13.70;;;;;;;23.21;21.97;98981.80;1739480;81;21803;-69
2022/03/29 08:24:23;;;;;;;25.45;14.55;;;;;;;22.83;22.31;98984.02;1748200;82;21053;-70
2022/03/29 08:26:55;;;;;;;22.85;14.00;;;;;;;22.47;22.63;98975.84;1748161;82;21120;-70
2022/03/29 08:29:25;;;;;;;28.25;15.05;;;;;;;22.49;22.64;98976.52;1745250;82;21327;-69
2022/03/29 08:31:53;;;;;;;34.58;19.12;;;;;;;22.52;22.71;98973.03;1714759;82;21045;-69
2022/03/29 08:34:20;;;;;;;28.52;17.25;;;;;;;22.41;22.78;98966.61;1748136;82;21629;-70
2022/03/29 08:36:49;;;;;;;29.18;17.17;;;;;;;22.28;23.04;98961.67;1748074;82;21506;-69
2022/03/29 08:39:16;;;;;;;38.10;18.80;;;;;;;22.43;23.04;98954.35;1748277;82;21045;-69
2022/03/29 08:41:51;;;;;;;30.30;17.62;;;;;;;22.78;22.84;98961.38;1748181;82;21310;-69
2022/03/29 08:44:20;;;;;;;31.55;18.23;;;;;;;22.85;22.57;98944.11;1748176;82;21085;-68
2022/03/29 08:46:49;;;;;;;38.78;19.80;;;;;;;22.84;22.67;98951.30;1748058;82;21022;-70
2022/03/29 08:49:16;;;;;;;37.42;22.00;;;;;;;22.27;23.33;98953.30;1720695;82;21124;-69
2022/03/29 08:51:43;;;;;;;43.23;23.52;;;;;;;21.41;24.56;98947.33;1748332;82;21056;-68
2022/03/29 08:54:11;;;;;;;37.85;22.30;;;;;;;21.09;24.95;98937.98;1748117;82;21196;-70
2022/03/29 08:56:40;;;;;;;30.12;20.75;;;;;;;21.15;25.00;98947.25;1748255;82;21116;-70
2022/03/29 08:59:09;;;;;;;36.98;21.87;;;;;;;21.44;24.72;98937.67;1748148;82;21056;-71
2022/03/29 09:01:40;;;;;;;32.63;21.77;;;;;;;21.68;24.45;98928.13;1721449;82;21588;-69
2022/03/29 09:04:14;;;;;;;38.10;22.27;;;;;;;21.92;24.18;98917.53;1748095;82;21026;-70
2022/03/29 09:06:55;;;;;;;38.13;19.67;;;;;;;22.04;24.16;98907.88;1748098;82;21197;-70
2022/03/29 09:09:37;;;;;;;24.45;15.10;;;;;;;22.49;23.97;98910.80;1720899;82;21041;-70
2022/03/29 09:12:21;;;;;;;19.98;11.28;;;;;;;22.88;23.49;98916.93;1748140;82;21053;-70
2022/03/29 09:15:00;;;;;;;17.17;8.85;;;;;;;22.99;23.55;98909.94;1748318;82;21144;-70
2022/03/29 09:17:35;;;;;;;18.67;9.28;;;;;;;22.70;23.86;98912.52;1720691;82;21046;-70
2022/03/29 09:20:11;;;;;;;22.50;8.50;;;;;;;22.19;24.30;98917.02;1748523;82;21247;-70
2022/03/29 09:22:52;;;;;;;17.55;8.55;;;;;;;21.38;25.36;98903.44;1748118;82;21057;-70
2022/03/29 09:25:24;;;;;;;24.10;8.57;;;;;;;20.83;26.32;98903.63;1748043;82;21076;-69
2022/03/29 09:28:14;;;;;;;16.57;8.75;;;;;;;20.42;27.02;98896.46;1721060;82;21320;-69
2022/03/29 09:30:43;;;;;;;15.60;7.90;;;;;;;20.23;27.32;98900.09;1747450;82;21557;-69
2022/03/29 09:33:20;;;;;;;20.00;10.03;;;;;;;19.87;27.69;98899.95;1747988;82;21928;-69
2022/03/29 09:36:00;;;;;;;20.85;9.28;;;;;;;19.80;27.89;98896.18;1748057;82;21029;-69
2022/03/29 09:38:39;;;;;;;20.95;10.03;;;;;;;20.16;28.00;98883.80;1748022;82;21059;-70
2022/03/29 09:41:08;;;;;;;18.25;10.45;;;;;;;20.00;28.07;98883.60;1747869;82;21030;-69
2022/03/29 09:43:39;;;;;;;25.12;8.93;;;;;;;20.17;27.75;98882.80;1738178;82;21061;-70
2022/03/29 09:46:08;;;;;;;21.02;10.13;;;;;;;20.15;28.07;98872.74;1747945;82;21131;-70
2022/03/29 09:48:38;;;;;;;30.68;10.40;;;;;;;20.05;28.18;98867.95;1748069;82;21553;-70
2022/03/29 09:51:17;;;;;;;26.62;9.60;;;;;;;20.50;27.79;98860.47;1723787;81;21066;-69
2022/03/29 09:53:52;;;;;;;20.37;9.30;;;;;;;20.91;27.52;98868.90;1718354;83;21040;-69
2022/03/29 09:56:29;;;;;;;26.95;9.45;;;;;;;20.57;27.93;98856.22;1691950;83;21586;-69
2022/03/29 09:59:11;;;;;;;15.38;9.00;;;;;;;20.47;28.27;98855.40;1717986;82;21132;-70
2022/03/29 10:01:54;;;;;;;20.15;8.15;;;;;;;20.40;28.39;98858.34;1718345;83;21046;-69
2022/03/29 10:04:22;;;;;;;18.62;8.80;;;;;;;20.35;28.55;98847.26;1718242;83;21077;-70
2022/03/29 10:06:58;;;;;;;16.30;8.70;;;;;;;20.11;28.89;98840.65;1718120;83;21049;-69
2022/03/29 10:09:37;;;;;;;15.23;8.63;;;;;;;19.97;29.25;98858.02;1718405;83;21288;-70
2022/03/29 10:12:10;;;;;;;13.62;8.70;;;;;;;19.71;29.56;98855.16;1718204;83;21271;-70
2022/03/29 10:14:45;;;;;;;16.60;8.43;;;;;;;19.69;29.98;98857.13;1718265;83;21529;-69
2022/03/29 10:17:16;;;;;;;13.80;7.67;;;;;;;19.52;30.34;98836.50;1718503;83;21108;-69
2022/03/29 10:19:47;;;;;;;;;;;;;;;19.50;30.14;98842.81;1695559;83;21059;-69
2022/03/29 10:22:16;;;;;;;14.13;6.50;;;;;;;19.43;30.56;98825.70;1718576;83;20487;-70
2022/03/29 10:24:45;;;;;;;13.10;7.35;;;;;;;19.41;31.23;98816.98;1691920;83;21135;-69
2022/03/29 10:27:17;;;;;;;18.73;8.03;;;;;;;19.17;31.56;98816.65;1718377;83;21053;-69
2022/03/29 10:29:49;;;;;;;12.78;7.70;;;;;;;19.00;31.94;98829.73;1718263;83;21105;-69
2022/03/29 10:32:31;;;;;;;22.05;9.30;;;;;;;19.13;31.58;98817.91;1718259;83;21128;-69
2022/03/29 10:36:19;;;;;;;16.40;8.58;;;;;;;19.91;30.75;98811.34;1795765;79;26095;-70
2022/03/29 10:38:54;;;;;;;21.25;8.33;;;;;;;20.30;29.84;98805.77;1756044;81;21015;-70
2022/03/29 10:41:51;;;;;;;15.70;8.48;;;;;;;20.81;28.90;98807.95;1748061;82;21214;-70
2022/03/29 10:44:20;;;;;;;15.78;7.35;;;;;;;20.85;29.03;98809.33;1748336;81;21036;-69
2022/03/29 10:46:52;;;;;;;14.70;7.87;;;;;;;20.87;28.75;98804.67;1748071;82;21084;-70
2022/03/29 10:49:32;;;;;;;14.60;7.90;;;;;;;20.85;28.92;98820.03;1748445;82;21044;-69
2022/03/29 10:52:09;;;;;;;17.65;7.53;;;;;;;20.40;29.44;98794.16;1748028;82;21623;-70
2022/03/29 10:54:42;;;;;;;15.65;8.55;;;;;;;20.30;29.50;98791.06;1748222;81;21833;-69
2022/03/29 10:57:25;;;;;;;16.60;8.78;;;;;;;20.24;29.87;98784.14;1747865;82;21517;-69
2022/03/29 11:00:17;;;;;;;14.90;8.43;;;;;;;19.82;30.48;98772.16;1748173;81;21049;-70
2022/03/29 11:02:42;;;;;;;14.58;8.00;;;;;;;19.80;30.41;98771.47;1740557;82;21028;-71
2022/03/29 11:05:10;;;;;;;18.20;9.70;;;;;;;19.90;30.50;98770.94;1740577;82;21081;-71
2022/03/29 11:07:41;;;;;;;18.07;10.00;;;;;;;19.82;30.36;98765.98;1718921;82;21084;-70
2022/03/29 11:10:23;;;;;;;16.87;10.10;;;;;;;19.68;30.18;98765.95;1743490;82;21222;-70
2022/03/29 11:12:57;;;;;;;22.65;13.62;;;;;;;19.48;30.91;98773.20;1747972;81;21034;-69
2022/03/29 11:15:37;;;;;;;30.20;15.10;;;;;;;19.10;31.46;98774.19;1748069;82;21049;-69
2022/03/29 11:18:04;;;;;;;25.97;14.58;;;;;;;18.86;31.86;98798.14;1742906;82;21076;-69
2022/03/29 11:20:46;;;;;;;;;;;;;;;18.55;32.34;98808.94;1721450;82;21140;-69
2022/03/29 11:23:15;;;;;;;34.35;16.23;;;;;;;18.30;33.58;98821.47;1747784;81;20174;-68
2022/03/29 11:25:45;;;;;;;38.80;15.38;;;;;;;17.93;34.06;98834.07;1719101;82;21109;-69
2022/03/29 11:28:16;;;;;;;30.50;13.62;;;;;;;17.50;36.97;98851.91;1747822;82;21652;-70
2022/03/29 11:30:47;;;;;;;26.65;12.47;;;;;;;17.05;41.19;98891.27;1748374;82;21661;-70
2022/03/29 11:33:17;;;;;;;33.70;14.07;;;;;;;16.47;44.17;98920.30;1718607;82;21510;-70
2022/03/29 11:35:52;;;;;;;24.72;13.25;;;;;;;15.72;48.64;98965.55;1726329;81;21013;-69
2022/03/29 11:38:21;;;;;;;34.83;14.87;;;;;;;15.15;53.96;98968.96;1756716;81;21085;-69